Time;durP1;ratioP1;P1;durP2;ratioP2;P2;SDS_P1;SDS_P2;PMS_P1;PMS_P2;Temp;Humidity;BMP_temperature;BMP_pressure;BME280_temperature;BME280_humidity;BME280_pressure;Samples;Min_cycle;Max_cycle;Signal;HPM_P1;HPM_P2
2020/12/22 00:00:32;;;;;;;4.13;3.53;;;;;;;;;;4977201;28;20485;-76
2020/12/22 00:02:58;;;;;;;4.15;3.35;;;;;;;;;;4977145;28;20049;-76
2020/12/22 00:05:23;;;;;;;4.75;3.65;;;;;;;;;;4977272;28;20113;-76
2020/12/22 00:07:48;;;;;;;3.70;3.05;;;;;;;;;;4991773;28;20133;-76
2020/12/22 00:10:14;;;;;;;6.57;4.10;;;;;;;;;;4992237;28;20043;-76
2020/12/22 00:12:40;;;;;;;7.60;3.80;;;;;;;;;;4976759;28;20036;-76
2020/12/22 00:15:09;;;;;;;4.93;3.15;;;;;;;;;;4977215;28;20049;-76
2020/12/22 00:17:36;;;;;;;6.30;4.00;;;;;;;;;;4976735;28;20042;-75
2020/12/22 00:20:03;;;;;;;3.88;3.42;;;;;;;;;;4976094;28;20041;-75
2020/12/22 00:22:28;;;;;;;6.43;3.92;;;;;;;;;;4976869;28;20449;-76
2020/12/22 00:24:54;;;;;;;5.47;3.90;;;;;;;;;;4976951;28;20062;-75
2020/12/22 00:27:19;;;;;;;3.88;3.47;;;;;;;;;;4991406;28;20039;-75
2020/12/22 00:29:44;;;;;;;7.10;4.45;;;;;;;;;;4976350;28;20042;-75
2020/12/22 00:32:10;;;;;;;5.50;3.60;;;;;;;;;;4976772;28;20126;-76
2020/12/22 00:34:35;;;;;;;4.80;3.78;;;;;;;;;;4976746;28;20287;-76
2020/12/22 00:37:01;;;;;;;4.35;3.95;;;;;;;;;;4976449;28;20461;-75
2020/12/22 00:39:27;;;;;;;4.07;3.22;;;;;;;;;;4975763;28;20507;-75
2020/12/22 00:41:53;;;;;;;5.75;4.75;;;;;;;;;;4976155;28;20118;-76
2020/12/22 00:44:19;;;;;;;5.97;4.28;;;;;;;;;;4976278;28;20038;-76
2020/12/22 00:46:45;;;;;;;4.35;3.95;;;;;;;;;;4976374;28;20051;-76
2020/12/22 00:49:10;;;;;;;4.95;4.18;;;;;;;;;;4975600;28;20035;-76
2020/12/22 00:51:36;;;;;;;6.55;4.60;;;;;;;;;;4976206;28;20525;-76
2020/12/22 00:54:01;;;;;;;8.10;3.70;;;;;;;;;;4990818;28;20175;-76
2020/12/22 00:56:27;;;;;;;4.95;3.45;;;;;;;;;;4990768;28;20077;-76
2020/12/22 00:58:58;;;;;;;4.32;3.35;;;;;;;;;;4974996;28;20035;-76
2020/12/22 01:01:23;;;;;;;4.18;3.30;;;;;;;;;;4976067;28;20041;-76
2020/12/22 01:03:49;;;;;;;4.47;3.67;;;;;;;;;;4976144;28;20037;-76
2020/12/22 01:06:15;;;;;;;3.83;2.95;;;;;;;;;;4976117;28;20127;-76
2020/12/22 01:08:44;;;;;;;3.50;3.08;;;;;;;;;;4975722;28;20082;-76
2020/12/22 01:11:10;;;;;;;5.57;3.30;;;;;;;;;;4976056;28;20106;-76
2020/12/22 01:13:35;;;;;;;6.60;3.13;;;;;;;;;;4975821;28;20031;-76
2020/12/22 01:16:00;;;;;;;6.85;3.38;;;;;;;;;;4975798;28;20468;-75
2020/12/22 01:18:26;;;;;;;3.53;3.08;;;;;;;;;;4975530;28;20042;-76
2020/12/22 01:20:51;;;;;;;3.55;2.67;;;;;;;;;;4976065;28;20045;-76
2020/12/22 01:23:17;;;;;;;7.03;3.28;;;;;;;;;;4975680;28;20030;-76
2020/12/22 01:25:43;;;;;;;4.03;2.80;;;;;;;;;;4974624;28;20472;-76
2020/12/22 01:28:08;;;;;;;3.67;2.63;;;;;;;;;;4973660;28;20085;-76
2020/12/22 01:30:37;;;;;;;6.57;2.72;;;;;;;;;;4975344;28;20151;-76
2020/12/22 01:33:04;;;;;;;3.15;2.80;;;;;;;;;;4974369;28;20083;-76
2020/12/22 01:35:29;;;;;;;5.78;2.75;;;;;;;;;;4990620;28;20038;-76
2020/12/22 01:37:54;;;;;;;3.08;2.67;;;;;;;;;;4973908;28;20543;-76
2020/12/22 01:40:20;;;;;;;3.08;2.60;;;;;;;;;;4975469;28;20051;-76
2020/12/22 01:42:45;;;;;;;4.25;3.17;;;;;;;;;;4975246;28;20045;-76
2020/12/22 01:45:11;;;;;;;8.00;2.85;;;;;;;;;;4975309;28;20083;-76
2020/12/22 01:47:44;;;;;;;3.10;2.50;;;;;;;;;;4973757;28;20488;-76
2020/12/22 01:50:11;;;;;;;3.40;2.25;;;;;;;;;;4975334;28;20047;-76
2020/12/22 01:52:37;;;;;;;3.45;3.03;;;;;;;;;;4974745;28;20046;-76
2020/12/22 01:55:03;;;;;;;4.50;2.50;;;;;;;;;;4975150;28;20050;-75
2020/12/22 01:57:28;;;;;;;2.67;2.22;;;;;;;;;;4975036;28;20034;-76
2020/12/22 01:59:53;;;;;;;2.50;2.17;;;;;;;;;;4957785;28;20038;-76
2020/12/22 02:02:19;;;;;;;2.53;2.30;;;;;;;;;;4974984;28;20031;-76
2020/12/22 02:04:44;;;;;;;2.80;2.30;;;;;;;;;;4973950;28;20486;-75
2020/12/22 02:07:12;;;;;;;3.15;2.08;;;;;;;;;;4974888;28;20093;-75
2020/12/22 02:09:39;;;;;;;3.45;2.30;;;;;;;;;;4974756;28;20516;-75
2020/12/22 02:12:04;;;;;;;2.60;2.15;;;;;;;;;;4974839;28;20109;-75
2020/12/22 02:14:30;;;;;;;2.25;2.03;;;;;;;;;;4974694;28;20046;-75
2020/12/22 02:16:55;;;;;;;2.70;2.00;;;;;;;;;;4974473;28;20121;-75
2020/12/22 02:19:22;;;;;;;2.20;1.85;;;;;;;;;;4973485;28;20047;-75
2020/12/22 02:21:47;;;;;;;2.67;1.77;;;;;;;;;;4973944;28;20085;-75
2020/12/22 02:24:12;;;;;;;2.05;1.60;;;;;;;;;;4974575;28;20034;-75
2020/12/22 02:26:38;;;;;;;1.80;1.60;;;;;;;;;;4974427;28;20042;-75
2020/12/22 02:29:03;;;;;;;2.10;1.80;;;;;;;;;;4956926;28;20084;-75
2020/12/22 02:31:29;;;;;;;1.90;1.80;;;;;;;;;;4974507;28;20196;-75
2020/12/22 02:33:54;;;;;;;3.85;2.17;;;;;;;;;;4974380;28;20045;-75
2020/12/22 02:36:19;;;;;;;2.30;1.80;;;;;;;;;;4974363;28;20697;-76
2020/12/22 02:38:45;;;;;;;2.40;1.50;;;;;;;;;;4973908;28;20037;-76
2020/12/22 02:41:11;;;;;;;1.75;1.60;;;;;;;;;;4974628;28;20464;-75
2020/12/22 02:43:36;;;;;;;1.70;1.60;;;;;;;;;;4974241;28;20110;-76
2020/12/22 02:46:02;;;;;;;1.88;1.70;;;;;;;;;;4974427;28;20507;-75
2020/12/22 02:48:28;;;;;;;3.70;1.80;;;;;;;;;;4974184;28;20159;-76
2020/12/22 02:50:54;;;;;;;1.40;1.30;;;;;;;;;;4972923;28;20040;-76
2020/12/22 02:53:20;;;;;;;2.30;1.80;;;;;;;;;;4974306;28;20031;-76
2020/12/22 02:55:45;;;;;;;3.08;1.75;;;;;;;;;;4973664;28;20502;-76
2020/12/22 02:58:11;;;;;;;2.05;1.67;;;;;;;;;;4988831;28;20042;-76
2020/12/22 03:00:38;;;;;;;1.60;1.50;;;;;;;;;;4973927;28;20038;-76
2020/12/22 03:03:03;;;;;;;1.98;1.77;;;;;;;;;;4974345;28;20049;-76
2020/12/22 03:05:29;;;;;;;1.95;1.58;;;;;;;;;;4974073;28;20035;-76
2020/12/22 03:07:54;;;;;;;1.77;1.58;;;;;;;;;;4974113;28;20439;-75
2020/12/22 03:10:20;;;;;;;1.90;1.70;;;;;;;;;;4973175;28;21668;-76
2020/12/22 03:12:47;;;;;;;3.22;1.83;;;;;;;;;;4974092;28;20119;-76
2020/12/22 03:15:12;;;;;;;2.42;1.83;;;;;;;;;;4973983;28;20042;-76
2020/12/22 03:17:39;;;;;;;2.03;1.63;;;;;;;;;;4972772;28;20118;-76
2020/12/22 03:20:13;;;;;;;2.15;1.60;;;;;;;;;;4974151;28;20062;-76
2020/12/22 03:22:40;;;;;;;3.03;1.70;;;;;;;;;;4956651;28;20588;-76
2020/12/22 03:25:06;;;;;;;3.00;1.73;;;;;;;;;;4974027;28;20039;-76
2020/12/22 03:27:32;;;;;;;6.13;1.98;;;;;;;;;;4973617;28;20397;-76
2020/12/22 03:29:58;;;;;;;2.70;2.08;;;;;;;;;;4988929;28;20049;-75
2020/12/22 03:32:23;;;;;;;1.58;1.48;;;;;;;;;;4972775;28;20046;-76
2020/12/22 03:34:49;;;;;;;3.03;2.10;;;;;;;;;;4973819;28;20030;-76
2020/12/22 03:37:19;;;;;;;2.05;1.70;;;;;;;;;;4973633;28;20066;-75
2020/12/22 03:39:49;;;;;;;1.90;1.70;;;;;;;;;;4973866;28;20076;-76
2020/12/22 03:42:15;;;;;;;1.90;1.80;;;;;;;;;;4973278;28;20101;-76
2020/12/22 03:44:40;;;;;;;4.28;1.73;;;;;;;;;;4973530;28;20035;-76
2020/12/22 03:47:06;;;;;;;2.28;2.05;;;;;;;;;;4973589;28;20396;-76
2020/12/22 03:49:31;;;;;;;2.05;1.70;;;;;;;;;;4973784;28;20555;-76
2020/12/22 03:51:57;;;;;;;2.88;2.20;;;;;;;;;;4955948;28;20043;-75
2020/12/22 03:54:22;;;;;;;1.50;1.40;;;;;;;;;;4973936;28;20070;-76
2020/12/22 03:56:48;;;;;;;4.22;1.60;;;;;;;;;;4977160;28;20089;-76
2020/12/22 03:59:13;;;;;;;2.05;1.85;;;;;;;;;;4975559;28;20396;-76
2020/12/22 04:01:38;;;;;;;4.47;2.90;;;;;;;;;;4992209;28;20504;-76
2020/12/22 04:04:04;;;;;;;3.95;2.15;;;;;;;;;;4976989;28;20105;-76
2020/12/22 04:06:29;;;;;;;3.05;2.30;;;;;;;;;;4976929;28;20151;-76
2020/12/22 04:08:55;;;;;;;2.95;1.95;;;;;;;;;;4977027;28;20066;-75
2020/12/22 04:11:20;;;;;;;2.33;1.80;;;;;;;;;;4976955;28;20117;-76
2020/12/22 04:13:47;;;;;;;4.00;2.40;;;;;;;;;;4976982;28;20039;-76
2020/12/22 04:16:12;;;;;;;4.05;2.15;;;;;;;;;;4977017;28;20049;-76
2020/12/22 04:18:38;;;;;;;3.05;2.22;;;;;;;;;;4975497;28;20047;-76
2020/12/22 04:21:03;;;;;;;2.35;1.88;;;;;;;;;;4976950;28;20089;-76
2020/12/22 04:23:28;;;;;;;2.42;2.05;;;;;;;;;;4976745;28;20117;-76
2020/12/22 04:25:54;;;;;;;1.95;1.75;;;;;;;;;;4976623;28;20043;-76
2020/12/22 04:28:20;;;;;;;2.15;1.95;;;;;;;;;;4976473;28;20074;-76
2020/12/22 04:30:46;;;;;;;1.98;1.77;;;;;;;;;;4976588;28;20042;-76
2020/12/22 04:33:12;;;;;;;2.90;2.15;;;;;;;;;;4976543;28;20133;-76
2020/12/22 04:35:39;;;;;;;3.75;1.90;;;;;;;;;;4976746;28;20070;-76
2020/12/22 04:38:05;;;;;;;2.10;1.80;;;;;;;;;;4976416;28;20694;-76
2020/12/22 04:40:31;;;;;;;1.70;1.60;;;;;;;;;;4991669;28;20093;-76
2020/12/22 04:42:58;;;;;;;1.40;1.30;;;;;;;;;;4975158;28;20030;-75
2020/12/22 04:45:28;;;;;;;1.50;1.40;;;;;;;;;;4990669;28;20439;-76
2020/12/22 04:47:57;;;;;;;1.05;1.00;;;;;;;;;;4974544;28;20408;-76
2020/12/22 04:50:24;;;;;;;3.83;1.10;;;;;;;;;;4976474;28;20073;-76
2020/12/22 04:52:51;;;;;;;0.98;0.98;;;;;;;;;;4976268;28;20037;-75
2020/12/22 04:55:20;;;;;;;1.08;1.02;;;;;;;;;;4975537;28;20150;-75
2020/12/22 04:57:51;;;;;;;0.80;0.80;;;;;;;;;;4975900;28;20428;-75
2020/12/22 05:00:18;;;;;;;3.42;1.30;;;;;;;;;;4976068;28;20080;-75
2020/12/22 05:02:44;;;;;;;0.80;0.80;;;;;;;;;;4976063;28;20035;-76
2020/12/22 05:05:11;;;;;;;4.53;0.80;;;;;;;;;;4976071;28;20042;-75
2020/12/22 05:07:37;;;;;;;1.02;0.85;;;;;;;;;;4975862;28;20077;-75
2020/12/22 05:10:14;;;;;;;0.60;0.60;;;;;;;;;;4974812;28;20122;-75
2020/12/22 05:12:41;;;;;;;0.63;0.60;;;;;;;;;;4975861;28;20085;-75
2020/12/22 05:15:08;;;;;;;4.10;0.88;;;;;;;;;;4975992;28;20035;-75
2020/12/22 05:17:52;;;;;;;3.45;2.30;;;;;;;;;;4975501;28;20035;-75
2020/12/22 05:20:20;;;;;;;1.88;1.40;;;;;;;;;;4957404;28;20038;-75
2020/12/22 05:22:46;;;;;;;0.95;0.85;;;;;;;;;;4975059;28;20081;-75
2020/12/22 05:25:16;;;;;;;1.50;1.05;;;;;;;;;;4975863;28;20378;-75
2020/12/22 05:27:44;;;;;;;0.50;0.50;;;;;;;;;;4975365;28;20030;-75
2020/12/22 05:30:09;;;;;;;1.15;0.50;;;;;;;;;;4974786;28;20041;-75
2020/12/22 05:32:35;;;;;;;0.30;0.30;;;;;;;;;;4975825;28;20121;-76
2020/12/22 05:35:00;;;;;;;1.48;0.50;;;;;;;;;;4974886;28;20042;-76
2020/12/22 05:37:26;;;;;;;1.65;0.30;;;;;;;;;;4975136;28;20043;-76
2020/12/22 05:39:52;;;;;;;0.30;0.30;;;;;;;;;;4975531;28;20372;-76
2020/12/22 05:42:19;;;;;;;0.35;0.30;;;;;;;;;;4974780;28;20034;-76
2020/12/22 05:44:51;;;;;;;0.38;0.30;;;;;;;;;;4975203;28;20031;-76
2020/12/22 05:47:18;;;;;;;0.32;0.32;;;;;;;;;;4974566;28;20121;-76
2020/12/22 05:49:55;;;;;;;0.82;0.65;;;;;;;;;;4973928;28;20031;-76
2020/12/22 05:52:24;;;;;;;2.30;0.75;;;;;;;;;;4975200;28;20051;-76
2020/12/22 05:54:51;;;;;;;1.73;1.40;;;;;;;;;;4973948;28;20046;-76
2020/12/22 05:57:27;;;;;;;1.15;0.55;;;;;;;;;;4974842;28;20050;-76
2020/12/22 05:59:54;;;;;;;1.77;0.88;;;;;;;;;;4974887;28;20041;-77
2020/12/22 06:02:31;;;;;;;0.75;0.40;;;;;;;;;;4975199;28;20038;-78
2020/12/22 06:05:00;;;;;;;0.20;0.20;;;;;;;;;;4975044;28;20063;-77
2020/12/22 06:07:29;;;;;;;0.20;0.20;;;;;;;;;;4973205;28;20035;-76
2020/12/22 06:09:56;;;;;;;0.43;0.20;;;;;;;;;;4973423;28;20051;-76
2020/12/22 06:12:22;;;;;;;2.88;0.40;;;;;;;;;;4974710;28;20469;-76
2020/12/22 06:14:50;;;;;;;0.22;0.20;;;;;;;;;;4974365;28;20030;-76
2020/12/22 06:17:16;;;;;;;0.47;0.10;;;;;;;;;;4974277;28;20038;-76
2020/12/22 06:19:45;;;;;;;0.22;0.20;;;;;;;;;;4974859;28;20106;-76
2020/12/22 06:22:12;;;;;;;0.20;0.10;;;;;;;;;;4974602;28;20464;-75
2020/12/22 06:24:39;;;;;;;2.67;0.45;;;;;;;;;;4973083;28;20080;-75
2020/12/22 06:27:07;;;;;;;0.20;0.20;;;;;;;;;;4974459;28;20034;-75
2020/12/22 06:29:33;;;;;;;0.00;0.00;;;;;;;;;;4973505;28;20039;-76
2020/12/22 06:32:26;;;;;;;0.20;0.20;;;;;;;;;;4974670;28;20346;-76
2020/12/22 06:35:18;;;;;;;1.25;0.50;;;;;;;;;;4969304;28;20401;-76
2020/12/22 06:37:44;;;;;;;0.63;0.30;;;;;;;;;;4974319;28;20487;-76
2020/12/22 06:40:10;;;;;;;0.32;0.20;;;;;;;;;;4972691;28;20041;-76
2020/12/22 06:42:39;;;;;;;0.85;0.20;;;;;;;;;;4974380;28;20121;-75
2020/12/22 06:45:24;;;;;;;0.63;0.20;;;;;;;;;;4972142;28;20038;-76
2020/12/22 06:47:50;;;;;;;0.00;0.00;;;;;;;;;;4972700;28;20035;-77
2020/12/22 06:50:35;;;;;;;0.10;0.10;;;;;;;;;;4974557;28;20070;-76
2020/12/22 06:53:00;;;;;;;0.52;0.20;;;;;;;;;;4973549;28;20058;-76
2020/12/22 06:55:50;;;;;;;0.15;0.15;;;;;;;;;;4974145;28;20504;-76
2020/12/22 06:58:41;;;;;;;0.10;0.10;;;;;;;;;;4974167;28;20034;-76
2020/12/22 07:01:24;;;;;;;0.10;0.10;;;;;;;;;;4974319;28;20381;-74
2020/12/22 07:03:54;;;;;;;1.30;0.25;;;;;;;;;;4974416;28;20071;-74
2020/12/22 07:06:59;;;;;;;0.40;0.25;;;;;;;;;;4974212;28;20039;-74
2020/12/22 07:09:27;;;;;;;1.55;0.20;;;;;;;;;;4933627;29;20039;-74
2020/12/22 07:12:07;;;;;;;0.20;0.20;;;;;;;;;;4933720;29;20043;-75
2020/12/22 07:14:33;;;;;;;0.57;0.25;;;;;;;;;;4965226;28;20146;-74
2020/12/22 07:17:00;;;;;;;0.40;0.40;;;;;;;;;;4974022;28;20106;-75
2020/12/22 07:19:29;;;;;;;0.20;0.20;;;;;;;;;;4974015;28;20039;-74
2020/12/22 07:22:00;;;;;;;0.30;0.30;;;;;;;;;;4973999;28;20200;-75
2020/12/22 07:24:27;;;;;;;0.38;0.20;;;;;;;;;;4974269;28;20477;-75
2020/12/22 07:26:53;;;;;;;2.75;0.35;;;;;;;;;;4972826;28;20035;-75
2020/12/22 07:29:19;;;;;;;1.08;0.30;;;;;;;;;;4973303;28;20034;-76
2020/12/22 07:31:46;;;;;;;0.20;0.20;;;;;;;;;;4975978;28;20042;-75
2020/12/22 07:34:11;;;;;;;1.55;0.30;;;;;;;;;;4977625;28;20618;-75
2020/12/22 07:36:37;;;;;;;0.13;0.13;;;;;;;;;;4977443;28;20094;-76
2020/12/22 07:39:09;;;;;;;0.15;0.15;;;;;;;;;;4992795;28;20034;-76
2020/12/22 07:41:35;;;;;;;2.75;0.30;;;;;;;;;;4977480;28;20042;-73
2020/12/22 07:44:19;;;;;;;0.15;0.13;;;;;;;;;;4977192;28;20497;-76
2020/12/22 07:46:47;;;;;;;0.38;0.38;;;;;;;;;;4976146;28;20501;-76
2020/12/22 07:49:14;;;;;;;0.20;0.20;;;;;;;;;;4976237;28;20393;-76
2020/12/22 07:51:42;;;;;;;0.30;0.20;;;;;;;;;;4977356;28;20034;-76
2020/12/22 07:54:08;;;;;;;0.45;0.20;;;;;;;;;;4977339;28;20166;-76
2020/12/22 07:56:36;;;;;;;0.90;0.30;;;;;;;;;;4977077;28;20492;-76
2020/12/22 07:59:04;;;;;;;6.43;0.52;;;;;;;;;;4977400;28;20034;-76
2020/12/22 08:01:31;;;;;;;1.15;0.30;;;;;;;;;;4976767;28;20121;-76
2020/12/22 08:03:57;;;;;;;0.43;0.20;;;;;;;;;;4977184;28;20031;-76
2020/12/22 08:06:22;;;;;;;0.15;0.15;;;;;;;;;;4977197;28;20034;-76
2020/12/22 08:09:00;;;;;;;0.50;0.38;;;;;;;;;;4976852;28;20465;-76
2020/12/22 08:11:26;;;;;;;0.95;0.35;;;;;;;;;;4976460;28;20496;-76
2020/12/22 08:13:52;;;;;;;0.82;0.28;;;;;;;;;;4992162;28;20084;-76
2020/12/22 08:16:19;;;;;;;1.23;0.28;;;;;;;;;;4977029;28;20060;-75
2020/12/22 08:18:45;;;;;;;1.88;0.60;;;;;;;;;;4975440;28;20125;-76
2020/12/22 08:21:12;;;;;;;3.03;0.55;;;;;;;;;;4977338;28;20083;-79
2020/12/22 08:23:38;;;;;;;1.33;0.50;;;;;;;;;;4978750;28;20108;-76
2020/12/22 08:26:04;;;;;;;1.42;0.22;;;;;;;;;;4976736;28;20497;-76
2020/12/22 08:28:30;;;;;;;0.10;0.10;;;;;;;;;;4975951;28;20038;-76
2020/12/22 08:31:06;;;;;;;0.35;0.30;;;;;;;;;;4976693;28;20093;-74
2020/12/22 08:33:33;;;;;;;1.90;0.82;;;;;;;;;;4975136;28;20045;-73
2020/12/22 08:35:59;;;;;;;1.42;1.00;;;;;;;;;;4968371;28;20037;-74
2020/12/22 08:38:26;;;;;;;0.70;0.30;;;;;;;;;;4963568;28;20027;-73
2020/12/22 08:40:54;;;;;;;0.82;0.70;;;;;;;;;;4966040;28;20088;-73
2020/12/22 08:43:22;;;;;;;0.52;0.40;;;;;;;;;;4972971;28;20082;-74
2020/12/22 08:45:48;;;;;;;1.27;0.55;;;;;;;;;;4966876;28;20030;-75
2020/12/22 08:48:13;;;;;;;1.17;0.88;;;;;;;;;;4966663;28;20526;-74
2020/12/22 08:50:52;;;;;;;1.58;0.60;;;;;;;;;;4965714;28;20031;-74
2020/12/22 08:53:17;;;;;;;0.75;0.65;;;;;;;;;;4965293;28;20433;-74
2020/12/22 08:55:43;;;;;;;0.65;0.65;;;;;;;;;;4958821;28;20067;-74
2020/12/22 08:58:08;;;;;;;2.10;0.68;;;;;;;;;;4956965;28;20050;-74
2020/12/22 09:00:34;;;;;;;1.23;0.60;;;;;;;;;;4965830;28;20046;-76
2020/12/22 09:03:02;;;;;;;2.25;0.60;;;;;;;;;;4991126;28;20477;-74
2020/12/22 09:05:30;;;;;;;0.77;0.40;;;;;;;;;;4976021;28;20136;-74
2020/12/22 09:08:00;;;;;;;0.88;0.40;;;;;;;;;;4976127;28;20189;-73
2020/12/22 09:10:26;;;;;;;1.20;0.63;;;;;;;;;;4976082;28;20496;-74
2020/12/22 09:12:51;;;;;;;3.67;0.50;;;;;;;;;;4975640;28;20049;-72
2020/12/22 09:15:17;;;;;;;2.05;0.90;;;;;;;;;;4975802;28;20129;-73
2020/12/22 09:17:42;;;;;;;1.10;0.90;;;;;;;;;;4975603;28;20569;-73
2020/12/22 09:20:08;;;;;;;1.38;1.00;;;;;;;;;;4974919;28;20031;-73
2020/12/22 09:22:34;;;;;;;7.38;1.73;;;;;;;;;;4975825;28;20074;-72
2020/12/22 09:25:02;;;;;;;3.15;0.65;;;;;;;;;;4975306;28;20035;-73
2020/12/22 09:27:29;;;;;;;3.40;0.98;;;;;;;;;;4975480;28;20041;-72
2020/12/22 09:29:54;;;;;;;2.45;0.45;;;;;;;;;;4974106;28;20035;-72
2020/12/22 09:32:20;;;;;;;3.30;0.55;;;;;;;;;;4975483;28;20041;-75
2020/12/22 09:34:45;;;;;;;2.33;0.60;;;;;;;;;;4958237;28;20039;-74
2020/12/22 09:37:10;;;;;;;1.02;0.70;;;;;;;;;;4990678;28;20118;-74
2020/12/22 09:39:37;;;;;;;3.30;0.60;;;;;;;;;;4975461;28;20398;-75
2020/12/22 09:42:04;;;;;;;2.25;0.63;;;;;;;;;;4975505;28;20043;-75
2020/12/22 09:44:29;;;;;;;0.73;0.60;;;;;;;;;;4974265;28;20039;-75
2020/12/22 09:46:56;;;;;;;0.93;0.73;;;;;;;;;;4974557;28;20050;-74
2020/12/22 09:49:23;;;;;;;2.10;0.75;;;;;;;;;;4975113;28;20031;-73
2020/12/22 09:51:49;;;;;;;1.67;0.80;;;;;;;;;;4957833;28;20389;-73
2020/12/22 09:54:15;;;;;;;3.03;0.80;;;;;;;;;;4955590;28;20041;-73
2020/12/22 09:56:40;;;;;;;0.65;0.50;;;;;;;;;;4955711;28;20038;-73
2020/12/22 09:59:06;;;;;;;2.75;0.90;;;;;;;;;;4956107;28;20085;-73
2020/12/22 10:01:32;;;;;;;1.40;0.60;;;;;;;;;;4955753;28;20409;-73
2020/12/22 10:03:57;;;;;;;0.50;0.50;;;;;;;;;;4955900;28;20043;-73
2020/12/22 10:06:24;;;;;;;1.23;0.60;;;;;;;;;;4955838;28;20043;-73
2020/12/22 10:08:51;;;;;;;2.42;0.43;;;;;;;;;;4955671;28;20035;-73
2020/12/22 10:11:18;;;;;;;1.13;0.55;;;;;;;;;;4955638;28;20047;-73
2020/12/22 10:13:44;;;;;;;2.67;0.95;;;;;;;;;;4954451;29;20045;-73
2020/12/22 10:16:12;;;;;;;1.27;0.50;;;;;;;;;;4964439;28;20038;-73
2020/12/22 10:18:37;;;;;;;1.70;0.75;;;;;;;;;;4974032;28;20061;-73
2020/12/22 10:21:14;;;;;;;1.73;0.65;;;;;;;;;;4974705;28;20035;-73
2020/12/22 10:23:41;;;;;;;4.18;0.80;;;;;;;;;;4973176;28;20038;-73
2020/12/22 10:26:09;;;;;;;2.40;0.75;;;;;;;;;;4974805;28;20380;-73
2020/12/22 10:28:35;;;;;;;3.40;0.80;;;;;;;;;;4973950;28;20097;-73
2020/12/22 10:31:01;;;;;;;3.60;0.60;;;;;;;;;;4974616;28;20042;-73
2020/12/22 10:33:27;;;;;;;2.05;0.75;;;;;;;;;;4974489;28;20065;-73
2020/12/22 10:35:53;;;;;;;1.30;0.57;;;;;;;;;;4973881;28;20035;-73
2020/12/22 10:38:19;;;;;;;0.60;0.55;;;;;;;;;;4973985;28;20035;-73
2020/12/22 10:40:48;;;;;;;1.90;0.68;;;;;;;;;;4974633;28;20057;-72
2020/12/22 10:43:14;;;;;;;5.82;0.57;;;;;;;;;;4974529;28;20046;-73
2020/12/22 10:45:40;;;;;;;1.83;0.80;;;;;;;;;;4973400;28;20415;-73
2020/12/22 10:48:06;;;;;;;4.40;0.63;;;;;;;;;;4988906;28;20043;-73
2020/12/22 10:50:35;;;;;;;2.47;0.70;;;;;;;;;;4973845;28;20042;-72
2020/12/22 10:53:01;;;;;;;1.65;0.70;;;;;;;;;;4974323;28;20185;-72
2020/12/22 10:55:26;;;;;;;3.88;0.65;;;;;;;;;;4974053;28;20524;-72
2020/12/22 10:57:52;;;;;;;2.03;0.50;;;;;;;;;;4974407;28;20079;-72
2020/12/22 11:00:18;;;;;;;1.05;0.70;;;;;;;;;;4974166;28;20035;-72
2020/12/22 11:02:50;;;;;;;2.53;0.85;;;;;;;;;;4989415;28;20121;-72
2020/12/22 11:05:15;;;;;;;3.30;1.02;;;;;;;;;;4977518;28;20050;-72
2020/12/22 11:07:52;;;;;;;1.45;0.68;;;;;;;;;;4977992;28;20039;-73
2020/12/22 11:10:17;;;;;;;3.35;0.73;;;;;;;;;;4977450;28;20389;-72
2020/12/22 11:12:43;;;;;;;2.10;0.77;;;;;;;;;;4978299;28;20035;-73
2020/12/22 11:15:08;;;;;;;1.45;0.75;;;;;;;;;;4977940;28;20085;-73
2020/12/22 11:17:34;;;;;;;1.10;0.80;;;;;;;;;;4977801;28;20141;-73
2020/12/22 11:20:00;;;;;;;2.47;0.90;;;;;;;;;;4960680;28;20507;-73
2020/12/22 11:22:25;;;;;;;1.25;0.60;;;;;;;;;;4977815;28;20041;-73
2020/12/22 11:24:51;;;;;;;1.25;0.55;;;;;;;;;;4977960;28;20485;-73
2020/12/22 11:27:16;;;;;;;1.30;0.60;;;;;;;;;;4977810;28;20066;-73
2020/12/22 11:29:43;;;;;;;4.22;0.65;;;;;;;;;;4977831;28;20041;-73
2020/12/22 11:32:10;;;;;;;2.80;0.80;;;;;;;;;;4977284;28;20046;-72
2020/12/22 11:34:36;;;;;;;1.77;0.63;;;;;;;;;;4978039;28;20404;-72
2020/12/22 11:37:02;;;;;;;2.67;1.00;;;;;;;;;;4976892;28;20046;-72
2020/12/22 11:39:28;;;;;;;3.63;0.65;;;;;;;;;;4976767;28;20039;-72
2020/12/22 11:42:00;;;;;;;2.03;0.80;;;;;;;;;;4991941;28;20034;-72
2020/12/22 11:44:25;;;;;;;4.13;1.00;;;;;;;;;;4977648;28;20043;-72
2020/12/22 11:46:51;;;;;;;3.35;0.68;;;;;;;;;;4977571;28;20068;-72
2020/12/22 11:49:16;;;;;;;4.03;1.00;;;;;;;;;;4976772;28;20031;-73
2020/12/22 11:51:42;;;;;;;0.90;0.50;;;;;;;;;;4991388;28;20288;-72
2020/12/22 11:54:10;;;;;;;2.30;0.70;;;;;;;;;;4977007;28;20042;-72
2020/12/22 11:56:35;;;;;;;0.82;0.73;;;;;;;;;;4977311;28;20050;-72
2020/12/22 11:59:01;;;;;;;2.83;1.00;;;;;;;;;;4992569;28;20081;-72
2020/12/22 12:01:27;;;;;;;3.10;1.00;;;;;;;;;;4977388;28;20035;-72
2020/12/22 12:03:53;;;;;;;1.85;0.60;;;;;;;;;;4977119;28;20030;-72
2020/12/22 12:06:18;;;;;;;1.55;0.88;;;;;;;;;;4977196;28;20072;-72
2020/12/22 12:08:44;;;;;;;1.50;0.57;;;;;;;;;;4976419;28;20039;-72
2020/12/22 12:11:10;;;;;;;2.80;0.82;;;;;;;;;;4976047;28;20542;-72
2020/12/22 12:13:36;;;;;;;1.17;0.73;;;;;;;;;;4976997;28;20030;-72
2020/12/22 12:16:02;;;;;;;0.95;0.68;;;;;;;;;;4975689;28;20049;-72
2020/12/22 12:18:27;;;;;;;0.85;0.60;;;;;;;;;;4976647;28;20051;-72
2020/12/22 12:20:53;;;;;;;1.35;0.80;;;;;;;;;;4977095;28;20053;-72
2020/12/22 12:23:18;;;;;;;0.85;0.22;;;;;;;;;;4976958;28;20118;-72
2020/12/22 12:25:44;;;;;;;4.32;0.60;;;;;;;;;;4975696;28;20137;-72
2020/12/22 12:28:09;;;;;;;0.55;0.50;;;;;;;;;;4976640;28;20047;-72
2020/12/22 12:30:34;;;;;;;3.28;1.02;;;;;;;;;;4976736;28;20042;-72
2020/12/22 12:33:00;;;;;;;2.05;0.60;;;;;;;;;;4976259;28;20074;-72
2020/12/22 12:35:26;;;;;;;1.42;0.50;;;;;;;;;;4976607;28;20050;-73
2020/12/22 12:37:52;;;;;;;0.43;0.43;;;;;;;;;;4976619;28;20042;-73
2020/12/22 12:40:17;;;;;;;0.75;0.65;;;;;;;;;;4976375;28;20477;-74
2020/12/22 12:42:43;;;;;;;1.00;0.50;;;;;;;;;;4976635;28;20038;-73
2020/12/22 12:45:09;;;;;;;1.33;0.90;;;;;;;;;;4976565;28;20039;-73
2020/12/22 12:47:34;;;;;;;1.00;0.65;;;;;;;;;;4976458;28;20049;-71
2020/12/22 12:49:59;;;;;;;2.08;0.60;;;;;;;;;;4975946;28;20038;-73
2020/12/22 12:52:25;;;;;;;2.63;1.65;;;;;;;;;;4976324;28;20432;-73
2020/12/22 12:54:51;;;;;;;1.92;0.90;;;;;;;;;;4976354;28;20502;-75
2020/12/22 12:57:16;;;;;;;0.75;0.60;;;;;;;;;;4976226;28;20186;-72
2020/12/22 12:59:42;;;;;;;4.22;0.80;;;;;;;;;;4976241;28;20405;-73
2020/12/22 13:02:08;;;;;;;1.27;0.77;;;;;;;;;;4975584;28;20044;-73
2020/12/22 13:04:34;;;;;;;2.80;1.25;;;;;;;;;;4976168;28;20049;-73
2020/12/22 13:07:00;;;;;;;3.08;1.10;;;;;;;;;;4975994;28;20042;-73
2020/12/22 13:09:25;;;;;;;3.63;1.02;;;;;;;;;;4975983;28;20048;-73
2020/12/22 13:11:51;;;;;;;1.23;0.68;;;;;;;;;;4991228;28;20042;-73
2020/12/22 13:14:16;;;;;;;2.22;1.08;;;;;;;;;;4975673;28;20122;-73
2020/12/22 13:16:41;;;;;;;3.90;1.10;;;;;;;;;;4975626;28;20042;-73
2020/12/22 13:19:07;;;;;;;3.15;1.00;;;;;;;;;;4975887;28;20043;-73
2020/12/22 13:21:38;;;;;;;2.38;1.10;;;;;;;;;;4975738;28;20066;-73
2020/12/22 13:24:04;;;;;;;1.90;0.90;;;;;;;;;;4975283;28;20041;-73
2020/12/22 13:26:35;;;;;;;1.10;0.70;;;;;;;;;;4975679;28;20117;-73
2020/12/22 13:29:01;;;;;;;1.00;0.70;;;;;;;;;;4990789;28;20042;-74
2020/12/22 13:31:26;;;;;;;0.68;0.68;;;;;;;;;;4975527;28;20038;-74
2020/12/22 13:33:51;;;;;;;1.80;0.80;;;;;;;;;;4990640;28;20039;-73
2020/12/22 13:36:17;;;;;;;1.75;0.68;;;;;;;;;;4975128;28;20464;-73
2020/12/22 13:38:42;;;;;;;1.75;0.68;;;;;;;;;;4975374;28;20054;-73
2020/12/22 13:41:07;;;;;;;1.98;0.80;;;;;;;;;;4975778;28;20396;-73
2020/12/22 13:43:33;;;;;;;1.67;0.70;;;;;;;;;;4975442;28;20038;-73
2020/12/22 13:45:58;;;;;;;2.40;0.88;;;;;;;;;;4975601;28;20042;-73
2020/12/22 13:48:23;;;;;;;4.18;0.57;;;;;;;;;;4990095;28;20070;-73
2020/12/22 13:50:49;;;;;;;5.07;1.55;;;;;;;;;;4973755;28;20030;-73
2020/12/22 13:53:14;;;;;;;2.50;0.98;;;;;;;;;;4975319;28;20183;-73
2020/12/22 13:55:40;;;;;;;1.23;0.70;;;;;;;;;;4975032;28;20542;-73
2020/12/22 13:58:05;;;;;;;1.85;0.80;;;;;;;;;;4974795;28;20057;-73
2020/12/22 14:00:30;;;;;;;4.25;0.77;;;;;;;;;;4975133;28;20082;-73
2020/12/22 14:02:56;;;;;;;0.55;0.50;;;;;;;;;;4975072;28;20049;-73
2020/12/22 14:05:21;;;;;;;2.15;0.90;;;;;;;;;;4973898;28;20500;-73
2020/12/22 14:07:46;;;;;;;1.45;0.57;;;;;;;;;;4974934;28;20125;-73
2020/12/22 14:10:12;;;;;;;1.92;0.80;;;;;;;;;;4974978;28;20152;-73
2020/12/22 14:12:37;;;;;;;0.90;0.52;;;;;;;;;;4974401;28;20070;-73
2020/12/22 14:15:03;;;;;;;2.13;0.75;;;;;;;;;;4974655;28;20467;-73
2020/12/22 14:17:28;;;;;;;1.70;0.60;;;;;;;;;;4973930;28;20034;-74
2020/12/22 14:19:54;;;;;;;3.80;1.33;;;;;;;;;;4974880;28;20440;-73
2020/12/22 14:22:19;;;;;;;1.98;1.05;;;;;;;;;;4974735;28;20056;-73
2020/12/22 14:24:46;;;;;;;1.55;0.63;;;;;;;;;;4974493;28;20089;-73
2020/12/22 14:27:11;;;;;;;0.30;0.30;;;;;;;;;;4974239;28;20461;-72
2020/12/22 14:29:37;;;;;;;1.10;0.55;;;;;;;;;;4973786;28;20073;-74
2020/12/22 14:32:02;;;;;;;2.88;1.10;;;;;;;;;;4974552;28;20532;-74
2020/12/22 14:34:28;;;;;;;2.90;0.70;;;;;;;;;;4974433;28;20134;-73
2020/12/22 14:36:54;;;;;;;1.08;0.50;;;;;;;;;;4974481;28;20034;-75
2020/12/22 14:39:20;;;;;;;0.98;0.65;;;;;;;;;;4974037;28;20081;-75
2020/12/22 14:41:49;;;;;;;1.33;0.70;;;;;;;;;;4973987;28;20034;-75